createdAt,value
2018-06-10T00:01:15.495Z,5.30
2018-06-10T00:03:43.055Z,5.83
2018-06-10T00:06:10.738Z,5.80
2018-06-10T00:08:38.327Z,5.67
2018-06-10T00:11:05.913Z,7.10
2018-06-10T00:13:33.471Z,5.10
2018-06-10T00:16:01.033Z,5.77
2018-06-10T00:18:28.603Z,6.87
2018-06-10T00:20:56.172Z,5.60
2018-06-10T00:23:23.760Z,5.97
2018-06-10T00:25:51.320Z,5.93
2018-06-10T00:29:22.791Z,6.93
2018-06-10T00:31:50.586Z,6.00
2018-06-10T00:34:18.747Z,6.93
2018-06-10T00:36:46.648Z,5.90
2018-06-10T00:39:14.205Z,6.17
2018-06-10T00:41:41.808Z,5.90
2018-06-10T00:44:09.372Z,6.33
2018-06-10T00:46:36.927Z,6.00
2018-06-10T00:49:04.573Z,5.33
2018-06-10T00:51:32.141Z,6.40
2018-06-10T00:53:59.739Z,6.27
2018-06-10T00:56:32.872Z,6.20
2018-06-10T00:59:00.444Z,6.10
2018-06-10T01:01:27.991Z,7.27
2018-06-10T01:03:55.549Z,6.00
2018-06-10T01:06:23.093Z,6.53
2018-06-10T01:08:50.661Z,5.80
2018-06-10T01:11:18.201Z,6.40
2018-06-10T01:13:45.783Z,6.60
2018-06-10T01:16:13.391Z,6.37
2018-06-10T01:18:40.981Z,6.60
2018-06-10T01:21:08.554Z,5.83
2018-06-10T01:23:36.104Z,6.00
2018-06-10T01:26:03.692Z,5.10
2018-06-10T01:28:31.241Z,6.10
2018-06-10T01:30:58.914Z,6.30
2018-06-10T01:33:26.734Z,6.90
2018-06-10T01:35:54.287Z,5.93
2018-06-10T01:38:21.843Z,5.80
2018-06-10T01:40:49.442Z,5.40
2018-06-10T01:43:17.011Z,6.30
2018-06-10T01:45:44.558Z,6.00
2018-06-10T01:48:12.102Z,5.90
2018-06-10T01:50:39.663Z,6.13
2018-06-10T01:53:07.204Z,6.60
2018-06-10T01:55:34.768Z,6.00
2018-06-10T01:58:02.374Z,6.40
2018-06-10T02:00:29.981Z,6.33
2018-06-10T02:02:57.532Z,6.50
2018-06-10T02:05:25.104Z,6.57
2018-06-10T02:07:52.658Z,5.60
2018-06-10T02:10:20.239Z,7.13
2018-06-10T02:12:47.820Z,5.87
2018-06-10T02:15:15.374Z,6.97
2018-06-10T02:17:42.929Z,6.70
2018-06-10T02:20:10.532Z,6.20
2018-06-10T02:22:38.135Z,7.00
2018-06-10T02:25:05.699Z,7.40
2018-06-10T02:27:33.358Z,6.03
2018-06-10T02:30:00.909Z,6.83
2018-06-10T02:32:28.522Z,6.67
2018-06-10T02:34:56.118Z,6.27
2018-06-10T02:37:23.701Z,6.57
2018-06-10T02:39:51.276Z,6.70
2018-06-10T02:42:18.877Z,7.00
2018-06-10T02:44:46.441Z,6.80
2018-06-10T02:47:14.009Z,6.63
2018-06-10T02:49:41.566Z,7.53
2018-06-10T02:52:09.166Z,6.80
2018-06-10T02:54:36.742Z,7.00
2018-06-10T02:57:04.325Z,6.90
2018-06-10T02:59:31.977Z,6.23
2018-06-10T03:01:59.532Z,6.10
2018-06-10T03:04:27.143Z,7.27
2018-06-10T03:06:54.702Z,6.73
2018-06-10T03:09:22.280Z,6.50
2018-06-10T03:11:49.862Z,6.40
2018-06-10T03:14:17.408Z,6.43
2018-06-10T03:16:44.983Z,6.57
2018-06-10T03:19:12.536Z,6.60
2018-06-10T03:21:40.116Z,6.40
2018-06-10T03:24:07.701Z,6.10
2018-06-10T03:26:35.304Z,6.87
2018-06-10T03:29:02.849Z,6.50
2018-06-10T03:31:30.429Z,6.87
2018-06-10T03:33:57.980Z,7.27
2018-06-10T03:36:25.536Z,8.07
2018-06-10T03:38:53.097Z,8.97
2018-06-10T03:41:20.666Z,9.53
2018-06-10T03:43:48.251Z,10.00
2018-06-10T03:46:15.820Z,10.80
2018-06-10T03:48:43.381Z,10.90
2018-06-10T03:51:11.020Z,10.47
2018-06-10T03:53:38.631Z,10.00
2018-06-10T03:56:06.204Z,10.07
2018-06-10T03:58:33.760Z,10.40
2018-06-10T04:01:01.324Z,9.07
2018-06-10T04:03:28.903Z,9.07
2018-06-10T04:05:56.505Z,7.80
2018-06-10T04:08:24.072Z,8.17
2018-06-10T04:10:51.637Z,8.03
2018-06-10T04:13:19.189Z,8.57
2018-06-10T04:15:46.779Z,8.90
2018-06-10T04:18:14.336Z,8.07
2018-06-10T04:20:41.893Z,8.40
2018-06-10T04:23:09.457Z,9.17
2018-06-10T04:25:37.028Z,10.20
2018-06-10T04:28:04.605Z,10.70
2018-06-10T04:30:32.183Z,11.03
2018-06-10T04:32:59.777Z,10.83
2018-06-10T04:35:27.351Z,11.40
2018-06-10T04:37:54.932Z,10.53
2018-06-10T04:40:22.506Z,9.87
2018-06-10T04:42:50.049Z,9.33
2018-06-10T04:45:17.630Z,10.43
2018-06-10T04:47:45.216Z,10.40
2018-06-10T04:50:12.821Z,11.77
2018-06-10T04:52:40.388Z,9.57
2018-06-10T04:55:07.976Z,9.97
2018-06-10T04:57:35.653Z,8.87
2018-06-10T05:00:03.310Z,8.90
2018-06-10T05:02:30.886Z,9.20
2018-06-10T05:04:58.541Z,9.57
2018-06-10T05:07:26.083Z,8.80
2018-06-10T05:09:53.642Z,9.90
2018-06-10T05:12:21.237Z,10.60
2018-06-10T05:14:48.777Z,9.63
2018-06-10T05:17:16.360Z,10.30
2018-06-10T05:19:44.000Z,11.10
2018-06-10T05:22:11.554Z,9.93
2018-06-10T05:24:39.140Z,10.60
2018-06-10T05:27:06.713Z,9.13
2018-06-10T05:29:34.276Z,9.07
2018-06-10T05:32:01.862Z,11.00
2018-06-10T05:34:29.446Z,9.27
2018-06-10T05:36:57.006Z,9.73
2018-06-10T05:39:24.553Z,8.63
2018-06-10T05:41:52.123Z,10.73
2018-06-10T05:44:19.703Z,9.57
2018-06-10T05:46:47.294Z,10.97
2018-06-10T05:49:14.890Z,9.17
2018-06-10T05:51:42.457Z,8.53
2018-06-10T05:54:10.030Z,8.97
2018-06-10T05:56:37.628Z,8.73
2018-06-10T05:59:05.228Z,9.30
2018-06-10T06:01:32.796Z,8.50
2018-06-10T06:04:00.385Z,10.40
2018-06-10T06:06:27.965Z,9.83
2018-06-10T06:08:55.547Z,9.23
2018-06-10T06:11:23.131Z,9.53
2018-06-10T06:13:50.728Z,9.10
2018-06-10T06:16:18.293Z,8.17
2018-06-10T06:18:45.872Z,9.57
2018-06-10T06:21:13.815Z,9.90
2018-06-10T06:23:41.427Z,8.70
2018-06-10T06:26:09.032Z,11.17
2018-06-10T06:28:36.645Z,10.30
2018-06-10T06:31:04.220Z,10.73
2018-06-10T06:33:31.840Z,11.00
2018-06-10T06:35:59.444Z,9.37
2018-06-10T06:38:27.063Z,9.90
2018-06-10T06:40:54.681Z,9.23
2018-06-10T06:43:22.389Z,9.50
2018-06-10T06:45:50.020Z,9.73
2018-06-10T06:48:17.613Z,9.90
2018-06-10T06:50:45.247Z,10.43
2018-06-10T06:53:12.886Z,10.33
2018-06-10T06:55:40.510Z,9.53
2018-06-10T06:58:08.104Z,9.47
2018-06-10T07:00:35.701Z,9.10
2018-06-10T07:03:03.334Z,8.90
2018-06-10T07:05:30.953Z,9.07
2018-06-10T07:07:58.555Z,7.80
2018-06-10T07:10:26.207Z,8.60
2018-06-10T07:12:53.843Z,7.73
2018-06-10T07:15:21.470Z,8.80
2018-06-10T07:17:49.096Z,7.63
2018-06-10T07:20:16.787Z,8.40
2018-06-10T07:22:44.473Z,8.13
2018-06-10T07:25:12.073Z,7.90
2018-06-10T07:27:39.706Z,9.17
2018-06-10T07:30:07.309Z,8.17
2018-06-10T07:32:34.937Z,8.00
2018-06-10T07:35:02.579Z,7.53
2018-06-10T07:37:30.394Z,6.90
2018-06-10T07:39:58.032Z,6.20
2018-06-10T07:42:25.632Z,6.50
2018-06-10T07:44:53.233Z,6.53
2018-06-10T07:47:21.107Z,6.87
2018-06-10T07:49:48.707Z,7.33
2018-06-10T07:52:16.309Z,8.27
2018-06-10T07:54:43.980Z,6.70
2018-06-10T07:57:11.600Z,7.80
2018-06-10T07:59:39.188Z,6.80
2018-06-10T08:02:06.793Z,6.23
2018-06-10T08:04:34.389Z,6.17
2018-06-10T08:07:01.973Z,6.60
2018-06-10T08:09:29.601Z,5.90
2018-06-10T08:11:57.238Z,5.77
2018-06-10T08:14:25.072Z,6.60
2018-06-10T08:16:52.709Z,6.93
2018-06-10T08:19:20.323Z,6.30
2018-06-10T08:21:48.890Z,6.70
2018-06-10T08:24:16.494Z,6.63
2018-06-10T08:26:44.085Z,6.33
2018-06-10T08:29:12.507Z,6.60
2018-06-10T08:31:40.261Z,7.57
2018-06-10T08:34:08.186Z,6.73
2018-06-10T08:36:35.780Z,6.60
2018-06-10T08:39:05.277Z,6.70
2018-06-10T08:41:48.077Z,7.47
2018-06-10T08:44:15.783Z,7.03
2018-06-10T08:46:43.385Z,6.90
2018-06-10T08:49:11.050Z,5.90
2018-06-10T08:51:38.636Z,7.10
2018-06-10T08:54:06.249Z,7.03
2018-06-10T08:56:33.827Z,6.90
2018-06-10T08:59:01.447Z,6.90
2018-06-10T09:01:29.051Z,7.30
2018-06-10T09:03:56.664Z,6.80
2018-06-10T09:06:24.279Z,7.43
2018-06-10T09:08:51.946Z,6.87
2018-06-10T09:11:19.559Z,7.43
2018-06-10T09:13:47.160Z,7.10
2018-06-10T09:16:14.772Z,7.27
2018-06-10T09:18:42.379Z,7.30
2018-06-10T09:21:10.025Z,7.33
2018-06-10T09:23:37.693Z,7.60
2018-06-10T09:26:05.339Z,7.20
2018-06-10T09:28:32.924Z,7.50
2018-06-10T09:31:00.513Z,6.30
2018-06-10T09:33:28.111Z,5.97
2018-06-10T09:35:55.698Z,6.80
2018-06-10T09:38:23.379Z,6.40
2018-06-10T09:40:50.943Z,6.37
2018-06-10T09:43:18.529Z,6.50
2018-06-10T09:45:46.158Z,6.27
2018-06-10T09:48:13.737Z,6.13
2018-06-10T09:50:41.360Z,6.93
2018-06-10T09:53:08.959Z,6.23
2018-06-10T09:55:36.738Z,7.13
2018-06-10T09:58:04.223Z,8.00
2018-06-10T10:00:31.842Z,6.27
2018-06-10T10:02:59.457Z,6.03
2018-06-10T10:05:27.061Z,6.13
2018-06-10T10:07:54.688Z,7.67
2018-06-10T10:10:22.713Z,7.13
2018-06-10T10:12:50.293Z,6.93
2018-06-10T10:15:17.914Z,6.10
2018-06-10T10:17:45.538Z,6.37
2018-06-10T10:20:13.110Z,7.10
2018-06-10T10:22:40.727Z,7.17
2018-06-10T10:25:08.330Z,7.10
2018-06-10T10:27:35.899Z,6.80
2018-06-10T10:30:03.598Z,7.10
2018-06-10T10:32:31.200Z,6.67
2018-06-10T10:34:58.863Z,7.17
2018-06-10T10:37:26.460Z,6.10
2018-06-10T10:39:54.046Z,6.57
2018-06-10T10:42:21.610Z,6.20
2018-06-10T10:44:49.201Z,6.27
2018-06-10T10:47:16.785Z,6.87
2018-06-10T10:49:44.364Z,7.57
2018-06-10T10:52:11.956Z,6.40
2018-06-10T10:54:39.541Z,7.07
2018-06-10T10:57:07.112Z,6.70
2018-06-10T10:59:34.678Z,6.07
2018-06-10T11:02:02.274Z,6.83
2018-06-10T11:04:29.843Z,6.30
2018-06-10T11:06:57.407Z,6.43
2018-06-10T11:09:25.070Z,7.20
2018-06-10T11:11:52.658Z,6.23
2018-06-10T11:14:20.230Z,6.40
2018-06-10T11:16:47.804Z,6.50
2018-06-10T11:19:15.488Z,6.73
2018-06-10T11:21:43.044Z,7.27
2018-06-10T11:24:10.649Z,6.90
2018-06-10T11:26:38.264Z,6.93
2018-06-10T11:29:05.869Z,6.80
2018-06-10T11:31:33.440Z,7.20
2018-06-10T11:34:01.033Z,7.63
2018-06-10T11:36:28.605Z,8.10
2018-06-10T11:38:56.199Z,7.40
2018-06-10T11:41:23.789Z,7.10
2018-06-10T11:43:51.375Z,6.50
2018-06-10T11:46:18.960Z,6.97
2018-06-10T11:48:46.536Z,6.00
2018-06-10T11:51:14.129Z,6.80
2018-06-10T11:53:41.732Z,6.40
2018-06-10T11:56:09.329Z,6.63
2018-06-10T11:58:36.902Z,6.67
2018-06-10T12:01:04.469Z,6.70
2018-06-10T12:03:32.052Z,6.63
2018-06-10T12:05:59.662Z,6.40
2018-06-10T12:08:27.266Z,6.33
2018-06-10T12:10:54.907Z,6.53
2018-06-10T12:13:22.463Z,6.17
2018-06-10T12:15:50.037Z,6.67
2018-06-10T12:18:17.644Z,6.23
2018-06-10T12:20:45.228Z,6.13
2018-06-10T12:23:12.794Z,7.10
2018-06-10T12:25:40.381Z,5.60
2018-06-10T12:28:07.944Z,6.13
2018-06-10T12:30:35.566Z,6.30
2018-06-10T12:33:03.155Z,6.40
2018-06-10T12:35:30.722Z,6.13
2018-06-10T12:37:58.288Z,6.93
2018-06-10T12:40:25.879Z,7.20
2018-06-10T12:42:53.562Z,7.10
2018-06-10T12:45:21.135Z,7.33
2018-06-10T12:47:48.702Z,6.93
2018-06-10T12:50:16.317Z,7.43
2018-06-10T12:52:43.895Z,6.93
2018-06-10T12:55:11.496Z,7.47
2018-06-10T12:57:39.118Z,6.40
2018-06-10T13:00:06.710Z,7.33
2018-06-10T13:02:34.360Z,6.40
2018-06-10T13:05:02.026Z,6.83
2018-06-10T13:07:29.644Z,6.47
2018-06-10T13:09:57.240Z,6.70
2018-06-10T13:12:24.827Z,6.57
2018-06-10T13:14:52.384Z,6.47
2018-06-10T13:17:19.937Z,7.30
2018-06-10T13:19:47.541Z,6.40
2018-06-10T13:22:15.162Z,6.73
2018-06-10T13:24:42.784Z,6.27
2018-06-10T13:27:10.357Z,6.90
2018-06-10T13:29:37.940Z,6.37
2018-06-10T13:32:05.570Z,7.07
2018-06-10T13:34:33.207Z,6.30
2018-06-10T13:37:00.795Z,7.47
2018-06-10T13:39:28.394Z,7.27
2018-06-10T13:41:55.986Z,6.10
2018-06-10T13:44:23.606Z,6.40
2018-06-10T13:46:51.218Z,6.50
2018-06-10T13:49:18.781Z,6.30
2018-06-10T13:51:46.340Z,6.40
2018-06-10T13:54:13.925Z,6.20
2018-06-10T13:56:41.533Z,6.77
2018-06-10T13:59:09.110Z,6.93
2018-06-10T14:01:36.663Z,6.90
2018-06-10T14:04:04.257Z,6.67
2018-06-10T14:06:31.832Z,7.63
2018-06-10T14:08:59.415Z,7.83
2018-06-10T14:11:27.011Z,7.30
2018-06-10T14:13:54.572Z,7.40
2018-06-10T14:16:22.189Z,8.30
2018-06-10T14:18:49.768Z,9.23
2018-06-10T14:21:17.360Z,6.53
2018-06-10T14:23:44.944Z,8.30
2018-06-10T14:26:12.650Z,8.00
2018-06-10T14:28:40.224Z,8.13
2018-06-10T14:31:07.825Z,7.63
2018-06-10T14:33:35.401Z,8.50
2018-06-10T14:36:02.988Z,8.60
2018-06-10T14:38:30.556Z,7.70
2018-06-10T14:40:58.122Z,7.73
2018-06-10T14:43:25.709Z,7.67
2018-06-10T14:45:53.282Z,7.23
2018-06-10T14:48:20.892Z,7.80
2018-06-10T14:50:48.484Z,7.13
2018-06-10T14:53:16.124Z,8.47
2018-06-10T14:55:43.732Z,7.80
2018-06-10T14:58:11.314Z,7.87
2018-06-10T15:00:38.918Z,7.93
2018-06-10T15:03:06.534Z,8.07
2018-06-10T15:05:34.128Z,8.67
2018-06-10T15:08:01.708Z,8.40
2018-06-10T15:10:29.308Z,7.60
2018-06-10T15:12:56.907Z,7.50
2018-06-10T15:15:24.496Z,9.57
2018-06-10T15:17:52.081Z,7.83
2018-06-10T15:20:19.661Z,8.07
2018-06-10T15:22:47.232Z,7.70
2018-06-10T15:25:14.816Z,8.90
2018-06-10T15:27:42.401Z,8.23
2018-06-10T15:30:10.023Z,9.47
2018-06-10T15:32:37.603Z,8.07
2018-06-10T15:35:05.184Z,8.30
2018-06-10T15:37:32.748Z,7.80
2018-06-10T15:40:00.324Z,8.17
2018-06-10T15:42:27.927Z,8.20
2018-06-10T15:44:55.536Z,7.97
2018-06-10T15:47:23.106Z,8.33
2018-06-10T15:49:50.687Z,8.13
2018-06-10T15:52:18.272Z,8.37
2018-06-10T15:54:45.874Z,7.77
2018-06-10T15:57:13.494Z,7.30
2018-06-10T15:59:41.083Z,8.43
2018-06-10T16:02:09.534Z,8.53
2018-06-10T16:04:37.157Z,7.50
2018-06-10T16:07:04.763Z,8.20
2018-06-10T16:09:32.347Z,8.20
2018-06-10T16:11:59.948Z,8.17
2018-06-10T16:14:27.532Z,7.90
2018-06-10T16:16:55.181Z,7.37
2018-06-10T16:19:22.755Z,9.87
2018-06-10T16:21:50.523Z,7.53
2018-06-10T16:24:18.120Z,7.80
2018-06-10T16:26:45.709Z,7.70
2018-06-10T16:29:13.341Z,7.60
2018-06-10T16:31:40.965Z,7.37
2018-06-10T16:34:08.610Z,7.60
2018-06-10T16:36:36.135Z,7.10
2018-06-10T16:39:04.176Z,8.87
2018-06-10T16:41:31.749Z,7.87
2018-06-10T16:43:59.347Z,8.43
2018-06-10T16:46:26.934Z,8.37
2018-06-10T16:48:54.540Z,8.07
2018-06-10T16:51:22.141Z,8.00
2018-06-10T16:53:49.770Z,7.90
2018-06-10T16:56:17.367Z,8.73
2018-06-10T16:58:44.971Z,7.50
2018-06-10T17:01:12.593Z,8.13
2018-06-10T17:03:40.190Z,8.77
2018-06-10T17:06:07.796Z,8.53
2018-06-10T17:08:35.425Z,8.80
2018-06-10T17:11:03.009Z,8.53
2018-06-10T17:13:30.617Z,9.23
2018-06-10T17:15:58.227Z,8.10
2018-06-10T17:18:25.792Z,8.20
2018-06-10T17:20:53.451Z,9.33
2018-06-10T17:23:21.054Z,9.17
2018-06-10T17:25:48.664Z,8.10
2018-06-10T17:28:16.254Z,8.10
2018-06-10T17:30:43.859Z,8.70
2018-06-10T17:33:11.478Z,8.80
2018-06-10T17:35:39.105Z,9.10
2018-06-10T17:38:06.749Z,9.40
2018-06-10T17:40:34.321Z,9.00
2018-06-10T17:43:01.929Z,9.40
2018-06-10T17:45:29.652Z,9.37
2018-06-10T17:47:57.248Z,9.40
2018-06-10T17:50:24.939Z,9.27
2018-06-10T17:52:52.595Z,9.80
2018-06-10T17:55:20.175Z,9.43
2018-06-10T17:57:47.782Z,9.57
2018-06-10T18:00:15.462Z,9.30
2018-06-10T18:02:43.071Z,9.17
2018-06-10T18:05:10.723Z,9.57
2018-06-10T18:07:38.365Z,9.30
2018-06-10T18:10:06.034Z,9.73
2018-06-10T18:12:33.639Z,8.70
2018-06-10T18:15:01.224Z,8.97
2018-06-10T18:17:28.821Z,8.60
2018-06-10T18:19:56.415Z,8.77
2018-06-10T18:22:24.016Z,8.43
2018-06-10T18:24:51.647Z,8.93
2018-06-10T18:27:19.235Z,9.20
2018-06-10T18:29:46.905Z,8.63
2018-06-10T18:32:15.052Z,9.00
2018-06-10T18:34:42.705Z,8.20
2018-06-10T18:37:10.472Z,7.73
2018-06-10T18:39:38.144Z,8.27
2018-06-10T18:42:05.820Z,8.57
2018-06-10T18:44:33.417Z,8.13
2018-06-10T18:47:01.130Z,7.83
2018-06-10T18:49:28.744Z,7.30
2018-06-10T18:51:56.402Z,8.23
2018-06-10T18:54:24.021Z,8.27
2018-06-10T18:56:51.642Z,7.00
2018-06-10T18:59:19.258Z,7.30
2018-06-10T19:01:46.889Z,8.00
2018-06-10T19:04:14.513Z,8.07
2018-06-10T19:06:42.132Z,8.03
2018-06-10T19:09:09.779Z,7.27
2018-06-10T19:11:43.499Z,7.40
2018-06-10T19:14:14.158Z,6.80
2018-06-10T19:16:41.779Z,7.77
2018-06-10T19:19:09.376Z,7.80
2018-06-10T19:21:36.990Z,7.30
2018-06-10T19:24:04.601Z,7.73
2018-06-10T19:26:32.208Z,6.70
2018-06-10T19:28:59.841Z,6.50
2018-06-10T19:31:27.498Z,7.47
2018-06-10T19:33:55.257Z,8.43
2018-06-10T19:36:23.172Z,6.83
2018-06-10T19:38:50.880Z,7.03
2018-06-10T19:41:18.505Z,6.83
2018-06-10T19:43:46.142Z,6.97
2018-06-10T19:46:13.826Z,7.80
2018-06-10T19:48:41.443Z,7.03
2018-06-10T19:51:09.185Z,7.23
2018-06-10T19:53:36.821Z,7.67
2018-06-10T19:56:05.169Z,7.93
2018-06-10T19:58:32.796Z,7.13
2018-06-10T20:01:00.377Z,8.37
2018-06-10T20:03:28.019Z,7.70
2018-06-10T20:05:55.612Z,7.30
2018-06-10T20:08:23.222Z,7.80
2018-06-10T20:10:50.881Z,8.10
2018-06-10T20:13:18.481Z,6.93
2018-06-10T20:15:46.249Z,7.50
2018-06-10T20:18:13.883Z,7.23
2018-06-10T20:20:41.473Z,7.80
2018-06-10T20:23:09.083Z,7.43
2018-06-10T20:25:36.638Z,6.90
2018-06-10T20:28:04.239Z,7.60
2018-06-10T20:30:31.836Z,7.43
2018-06-10T20:32:59.427Z,7.43
2018-06-10T20:35:27.043Z,7.47
2018-06-10T20:37:54.731Z,7.43
2018-06-10T20:40:22.428Z,7.27
2018-06-10T20:42:50.061Z,8.40
2018-06-10T20:45:18.161Z,7.57
2018-06-10T20:47:45.891Z,7.90
2018-06-10T20:50:13.498Z,7.13
2018-06-10T20:52:41.100Z,7.30
2018-06-10T20:55:08.707Z,7.60
2018-06-10T20:57:36.282Z,6.80
2018-06-10T21:00:03.946Z,6.73
2018-06-10T21:02:31.531Z,7.67
2018-06-10T21:04:59.114Z,7.50
2018-06-10T21:07:26.705Z,7.00
2018-06-10T21:09:54.278Z,7.47
2018-06-10T21:12:21.885Z,7.50
2018-06-10T21:14:49.473Z,7.50
2018-06-10T21:17:17.031Z,7.10
2018-06-10T21:19:44.589Z,6.70
2018-06-10T21:22:12.242Z,6.70
2018-06-10T21:24:39.834Z,7.20
2018-06-10T21:27:07.417Z,7.90
2018-06-10T21:29:35.055Z,7.53
2018-06-10T21:32:02.726Z,7.20
2018-06-10T21:34:30.325Z,6.90
2018-06-10T21:36:59.026Z,6.83
2018-06-10T21:39:26.681Z,7.17
2018-06-10T21:41:54.269Z,7.10
2018-06-10T21:44:21.847Z,7.17
2018-06-10T21:46:49.658Z,8.17
2018-06-10T21:49:17.226Z,7.83
2018-06-10T21:51:44.832Z,7.20
2018-06-10T21:54:12.404Z,7.60
2018-06-10T21:56:40.132Z,7.90
2018-06-10T21:59:07.734Z,7.27
2018-06-10T22:01:35.342Z,7.50
2018-06-10T22:04:02.950Z,7.97
2018-06-10T22:06:30.508Z,7.40
2018-06-10T22:08:58.085Z,7.30
2018-06-10T22:11:25.682Z,7.40
2018-06-10T22:13:53.242Z,7.13
2018-06-10T22:16:20.842Z,6.53
2018-06-10T22:18:48.427Z,6.50
2018-06-10T22:21:16.030Z,6.80
2018-06-10T22:23:43.610Z,6.97
2018-06-10T22:26:11.239Z,7.27
2018-06-10T22:28:38.784Z,7.00
2018-06-10T22:31:06.739Z,7.23
2018-06-10T22:33:34.341Z,7.57
2018-06-10T22:36:01.900Z,6.60
2018-06-10T22:38:29.488Z,7.40
2018-06-10T22:40:57.086Z,7.77
2018-06-10T22:43:24.672Z,7.30
2018-06-10T22:45:52.243Z,7.17
2018-06-10T22:48:19.818Z,7.03
2018-06-10T22:50:47.397Z,7.33
2018-06-10T22:53:20.475Z,6.90
2018-06-10T22:55:48.042Z,7.70
2018-06-10T22:58:15.630Z,7.00
2018-06-10T23:00:43.236Z,7.37
2018-06-10T23:03:10.836Z,7.53
2018-06-10T23:05:38.402Z,7.00
2018-06-10T23:08:06.040Z,7.20
2018-06-10T23:10:33.662Z,7.67
2018-06-10T23:13:01.219Z,7.60
2018-06-10T23:15:28.814Z,6.60
2018-06-10T23:17:56.426Z,7.23
2018-06-10T23:20:24.008Z,8.00
2018-06-10T23:22:51.607Z,8.20
2018-06-10T23:25:19.197Z,7.27
2018-06-10T23:27:46.804Z,7.07
2018-06-10T23:30:14.396Z,7.23
2018-06-10T23:32:42.013Z,8.00
2018-06-10T23:35:09.649Z,7.07
2018-06-10T23:37:37.318Z,6.77
2018-06-10T23:40:04.928Z,7.73
2018-06-10T23:42:32.531Z,7.70
2018-06-10T23:45:00.138Z,7.77
2018-06-10T23:47:27.744Z,7.03
2018-06-10T23:49:55.352Z,7.53
2018-06-10T23:52:22.976Z,8.17
2018-06-10T23:54:50.594Z,7.93
2018-06-10T23:57:18.208Z,7.13
2018-06-10T23:59:45.811Z,8.00
